createdAt,value
2023-04-08T00:00:30.924Z,8.27
2023-04-08T00:02:57.916Z,8.40
2023-04-08T00:05:25.395Z,8.50
2023-04-08T00:07:52.266Z,8.07
2023-04-08T00:10:19.882Z,8.10
2023-04-08T00:12:48.202Z,7.83
2023-04-08T00:15:15.045Z,8.20
2023-04-08T00:17:42.352Z,8.30
2023-04-08T00:20:09.653Z,8.27
2023-04-08T00:22:36.706Z,8.40
2023-04-08T00:25:06.688Z,8.10
2023-04-08T00:27:33.767Z,8.27
2023-04-08T00:30:01.680Z,8.20
2023-04-08T00:32:29.298Z,7.50
2023-04-08T00:34:56.606Z,8.30
2023-04-08T00:37:23.445Z,7.30
2023-04-08T00:39:50.563Z,7.93
2023-04-08T00:42:17.727Z,7.63
2023-04-08T00:44:44.587Z,8.00
2023-04-08T00:47:16.166Z,8.03
2023-04-08T00:49:44.018Z,7.80
2023-04-08T00:52:11.128Z,8.07
2023-04-08T00:54:38.676Z,8.30
2023-04-08T00:57:06.785Z,7.23
2023-04-08T00:59:36.056Z,7.60
2023-04-08T01:02:17.328Z,7.53
2023-04-08T01:04:57.263Z,8.07
2023-04-08T01:07:32.394Z,7.87
2023-04-08T01:10:18.939Z,7.50
2023-04-08T01:13:10.297Z,7.90
2023-04-08T01:15:42.369Z,7.87
2023-04-08T01:18:15.830Z,7.73
2023-04-08T01:20:44.278Z,8.07
2023-04-08T01:23:14.075Z,8.63
2023-04-08T01:25:47.204Z,9.77
2023-04-08T01:28:17.973Z,9.17
2023-04-08T01:30:46.310Z,9.87
2023-04-08T01:33:15.952Z,9.20
2023-04-08T01:35:43.487Z,10.50
2023-04-08T01:38:14.504Z,9.20
2023-04-08T01:40:42.677Z,9.90
2023-04-08T01:43:11.692Z,10.17
2023-04-08T01:45:39.118Z,10.07
2023-04-08T01:48:07.111Z,10.53
2023-04-08T01:50:35.204Z,10.00
2023-04-08T01:53:04.786Z,10.47
2023-04-08T01:55:33.710Z,10.37
2023-04-08T01:58:01.656Z,10.40
2023-04-08T02:00:32.195Z,10.40
2023-04-08T02:03:00.344Z,10.40
2023-04-08T02:05:27.324Z,9.70
2023-04-08T02:07:54.270Z,10.20
2023-04-08T02:10:21.383Z,10.03
2023-04-08T02:12:48.664Z,10.20
2023-04-08T02:15:15.976Z,10.47
2023-04-08T02:18:02.484Z,9.90
2023-04-08T02:20:37.653Z,10.37
2023-04-08T02:23:21.040Z,10.87
2023-04-08T02:25:49.674Z,10.80
2023-04-08T02:28:19.709Z,10.73
2023-04-08T02:30:52.301Z,11.37
2023-04-08T02:33:23.836Z,11.70
2023-04-08T02:35:54.969Z,11.70
2023-04-08T02:38:24.189Z,11.47
2023-04-08T02:40:51.704Z,11.60
2023-04-08T02:43:18.787Z,11.93
2023-04-08T02:45:46.183Z,11.30
2023-04-08T02:48:13.247Z,11.97
2023-04-08T02:50:40.906Z,12.40
2023-04-08T02:53:09.091Z,12.87
2023-04-08T02:55:38.046Z,13.60
2023-04-08T02:58:05.096Z,12.10
2023-04-08T03:00:32.248Z,14.20
2023-04-08T03:02:59.505Z,12.63
2023-04-08T03:05:27.240Z,13.70
2023-04-08T03:07:54.122Z,13.87
2023-04-08T03:10:21.077Z,14.60
2023-04-08T03:12:48.091Z,13.73
2023-04-08T03:15:15.111Z,13.93
2023-04-08T03:17:42.192Z,14.03
2023-04-08T03:20:09.945Z,13.93
2023-04-08T03:22:37.135Z,13.80
2023-04-08T03:25:04.490Z,14.70
2023-04-08T03:27:31.423Z,14.93
2023-04-08T03:29:58.826Z,15.70
2023-04-08T03:32:25.893Z,15.00
2023-04-08T03:34:53.557Z,13.23
2023-04-08T03:37:20.572Z,14.57
2023-04-08T03:39:47.476Z,14.90
2023-04-08T03:42:14.497Z,15.97
2023-04-08T03:44:41.475Z,14.10
2023-04-08T03:47:08.463Z,14.70
2023-04-08T03:49:35.329Z,15.17
2023-04-08T03:52:02.388Z,14.17
2023-04-08T03:54:29.276Z,15.23
2023-04-08T03:56:56.283Z,15.20
2023-04-08T03:59:23.319Z,15.23
2023-04-08T04:01:51.489Z,15.00
2023-04-08T04:04:18.799Z,15.93
2023-04-08T04:06:46.136Z,15.40
2023-04-08T04:09:13.156Z,14.93
2023-04-08T04:11:40.076Z,15.10
2023-04-08T04:14:06.968Z,14.80
2023-04-08T04:16:33.867Z,14.83
2023-04-08T04:19:00.895Z,14.53
2023-04-08T04:21:27.817Z,14.90
2023-04-08T04:23:54.675Z,14.63
2023-04-08T04:26:21.600Z,14.53
2023-04-08T04:28:48.798Z,14.53
2023-04-08T04:31:23.846Z,14.97
2023-04-08T04:33:50.844Z,14.63
2023-04-08T04:36:18.208Z,14.63
2023-04-08T04:38:47.149Z,14.60
2023-04-08T04:41:15.666Z,14.80
2023-04-08T04:43:42.532Z,14.93
2023-04-08T04:46:09.566Z,14.67
2023-04-08T04:48:36.542Z,15.17
2023-04-08T04:51:03.719Z,14.63
2023-04-08T04:53:31.817Z,14.83
2023-04-08T04:56:01.233Z,14.23
2023-04-08T04:58:28.718Z,14.27
2023-04-08T05:00:56.516Z,14.27
2023-04-08T05:03:23.674Z,15.43
2023-04-08T05:05:54.512Z,14.33
2023-04-08T05:08:21.727Z,15.07
2023-04-08T05:10:50.832Z,16.47
2023-04-08T05:13:18.760Z,15.67
2023-04-08T05:15:46.013Z,14.30
2023-04-08T05:18:13.150Z,15.40
2023-04-08T05:20:40.296Z,14.60
2023-04-08T05:23:07.881Z,14.67
2023-04-08T05:25:34.853Z,14.80
2023-04-08T05:28:01.992Z,14.20
2023-04-08T05:30:28.971Z,13.90
2023-04-08T05:32:57.867Z,15.03
2023-04-08T05:35:26.946Z,14.10
2023-04-08T05:37:53.907Z,14.73
2023-04-08T05:40:21.295Z,15.10
2023-04-08T05:42:48.219Z,14.47
2023-04-08T05:45:16.162Z,14.83
2023-04-08T05:47:43.159Z,14.23
2023-04-08T05:50:11.304Z,14.93
2023-04-08T05:52:42.704Z,13.97
2023-04-08T05:55:09.744Z,14.37
2023-04-08T05:57:37.030Z,15.07
2023-04-08T06:00:08.556Z,14.57
2023-04-08T06:02:37.641Z,14.30
2023-04-08T06:05:05.970Z,13.80
2023-04-08T06:07:33.538Z,13.60
2023-04-08T06:10:00.668Z,13.77
2023-04-08T06:12:27.520Z,13.93
2023-04-08T06:14:56.226Z,15.10
2023-04-08T06:17:23.328Z,15.50
2023-04-08T06:19:50.469Z,14.93
2023-04-08T06:22:17.370Z,14.10
2023-04-08T06:24:44.364Z,14.20
2023-04-08T06:27:11.271Z,14.07
2023-04-08T06:29:38.106Z,14.40
2023-04-08T06:32:06.314Z,14.93
2023-04-08T06:34:33.356Z,15.30
2023-04-08T06:37:00.434Z,14.63
2023-04-08T06:39:27.316Z,14.97
2023-04-08T06:41:54.760Z,14.30
2023-04-08T06:44:37.582Z,14.17
2023-04-08T06:47:04.534Z,14.63
2023-04-08T06:49:31.441Z,14.73
2023-04-08T06:51:58.307Z,15.43
2023-04-08T06:54:25.407Z,15.50
2023-04-08T06:56:52.284Z,14.47
2023-04-08T06:59:19.213Z,15.10
2023-04-08T07:01:46.863Z,15.03
2023-04-08T07:04:13.930Z,14.97
2023-04-08T07:06:41.064Z,15.77
2023-04-08T07:09:08.071Z,15.37
2023-04-08T07:11:35.048Z,15.67
2023-04-08T07:14:01.969Z,14.57
2023-04-08T07:16:28.940Z,14.87
2023-04-08T07:18:55.946Z,16.43
2023-04-08T07:21:22.877Z,16.33
2023-04-08T07:23:49.787Z,16.30
2023-04-08T07:26:16.891Z,14.63
2023-04-08T07:28:43.770Z,15.53
2023-04-08T07:31:18.635Z,15.77
2023-04-08T07:33:46.503Z,15.43
2023-04-08T07:36:14.164Z,16.27
2023-04-08T07:38:41.257Z,16.20
2023-04-08T07:41:08.406Z,17.10
2023-04-08T07:43:37.459Z,15.53
2023-04-08T07:46:05.478Z,16.33
2023-04-08T07:48:33.295Z,16.73
2023-04-08T07:51:10.962Z,16.37
2023-04-08T07:53:39.323Z,16.53
2023-04-08T07:56:13.447Z,15.83
2023-04-08T07:58:41.037Z,14.47
2023-04-08T08:01:22.360Z,14.77
2023-04-08T08:03:54.100Z,15.03
2023-04-08T08:06:22.167Z,16.40
2023-04-08T08:08:49.144Z,16.03
2023-04-08T08:11:16.292Z,15.50
2023-04-08T08:13:43.407Z,16.63
2023-04-08T08:16:12.025Z,16.23
2023-04-08T08:18:40.561Z,14.93
2023-04-08T08:21:08.372Z,14.57
2023-04-08T08:23:35.340Z,15.17
2023-04-08T08:26:07.146Z,14.50
2023-04-08T08:28:34.122Z,14.50
2023-04-08T08:31:03.599Z,14.77
2023-04-08T08:33:30.565Z,15.90
2023-04-08T08:35:58.352Z,16.07
2023-04-08T08:38:27.152Z,14.37
2023-04-08T08:40:58.329Z,14.57
2023-04-08T08:43:26.124Z,14.80
2023-04-08T08:45:56.451Z,14.83
2023-04-08T08:48:23.458Z,15.50
2023-04-08T08:50:50.526Z,13.57
2023-04-08T08:53:17.616Z,14.07
2023-04-08T08:56:13.464Z,13.43
2023-04-08T08:58:31.994Z,14.47
2023-04-08T09:00:58.864Z,12.77
2023-04-08T09:03:28.392Z,15.93
2023-04-08T09:06:01.125Z,15.03
2023-04-08T09:08:33.501Z,14.50
2023-04-08T09:11:13.872Z,14.00
2023-04-08T09:13:41.253Z,13.93
2023-04-08T09:16:18.024Z,13.23
2023-04-08T09:18:47.461Z,13.10
2023-04-08T09:21:17.013Z,12.97
2023-04-08T09:23:46.362Z,13.30
2023-04-08T09:26:14.749Z,13.33
2023-04-08T09:28:43.081Z,12.97
2023-04-08T09:31:31.117Z,11.77
2023-04-08T09:34:00.624Z,13.00
2023-04-08T09:36:27.598Z,12.50
2023-04-08T09:38:55.587Z,11.47
2023-04-08T09:41:24.311Z,11.93
2023-04-08T09:43:56.039Z,12.67
2023-04-08T09:46:33.251Z,13.30
2023-04-08T09:49:13.421Z,13.57
2023-04-08T09:51:53.098Z,13.80
2023-04-08T09:54:23.192Z,13.03
2023-04-08T09:57:01.111Z,12.90
2023-04-08T09:59:34.676Z,11.70
2023-04-08T10:02:07.550Z,12.10
2023-04-08T10:04:38.748Z,11.33
2023-04-08T10:07:08.533Z,11.87
2023-04-08T10:09:36.207Z,12.00
2023-04-08T10:12:04.971Z,11.60
2023-04-08T10:14:32.663Z,11.53
2023-04-08T10:17:26.677Z,12.13
2023-04-08T10:19:53.920Z,11.10
2023-04-08T10:22:48.164Z,11.73
2023-04-08T10:25:33.399Z,11.27
2023-04-08T10:28:01.940Z,11.97
2023-04-08T10:30:28.760Z,11.63
2023-04-08T10:32:56.869Z,11.60
2023-04-08T10:35:31.428Z,11.43
2023-04-08T10:37:59.082Z,12.37
2023-04-08T10:40:26.090Z,11.10
2023-04-08T10:43:00.329Z,10.73
2023-04-08T10:45:27.360Z,10.63
2023-04-08T10:47:54.247Z,10.50
2023-04-08T10:50:24.375Z,9.57
2023-04-08T10:52:52.523Z,9.03
2023-04-08T10:55:38.703Z,9.13
2023-04-08T10:58:07.601Z,8.83
2023-04-08T11:00:39.603Z,9.03
2023-04-08T11:03:09.256Z,8.17
2023-04-08T11:05:38.088Z,9.50
2023-04-08T11:08:06.049Z,8.73
2023-04-08T11:10:38.921Z,9.07
2023-04-08T11:13:09.989Z,9.63
2023-04-08T11:15:37.813Z,9.37
2023-04-08T11:18:06.087Z,8.90
2023-04-08T11:20:37.189Z,9.40
2023-04-08T11:23:04.073Z,9.43
2023-04-08T11:25:31.234Z,9.10
2023-04-08T11:27:58.462Z,9.20
2023-04-08T11:30:25.533Z,9.00
2023-04-08T11:32:52.822Z,9.80
2023-04-08T11:35:21.166Z,9.90
2023-04-08T11:37:49.883Z,9.03
2023-04-08T11:40:21.697Z,10.27
2023-04-08T11:42:48.786Z,9.27
2023-04-08T11:45:16.809Z,9.07
2023-04-08T11:47:44.649Z,9.93
2023-04-08T11:50:11.760Z,9.20
2023-04-08T11:52:45.174Z,8.97
2023-04-08T11:55:22.076Z,8.87
2023-04-08T11:57:49.066Z,9.10
2023-04-08T12:00:16.067Z,9.50
2023-04-08T12:02:43.019Z,9.47
2023-04-08T12:05:10.102Z,9.27
2023-04-08T12:07:38.240Z,9.23
2023-04-08T12:10:05.990Z,8.77
2023-04-08T12:12:32.863Z,9.07
2023-04-08T12:14:59.785Z,8.87
2023-04-08T12:17:26.713Z,9.20
2023-04-08T12:19:53.654Z,9.20
2023-04-08T12:22:20.695Z,9.33
2023-04-08T12:24:47.625Z,9.97
2023-04-08T12:27:14.591Z,9.97
2023-04-08T12:29:41.757Z,9.47
2023-04-08T12:32:08.695Z,9.10
2023-04-08T12:34:35.970Z,9.23
2023-04-08T12:37:02.879Z,9.23
2023-04-08T12:39:29.766Z,9.50
2023-04-08T12:41:57.068Z,9.27
2023-04-08T12:44:24.017Z,9.83
2023-04-08T12:46:51.107Z,10.83
2023-04-08T12:49:18.116Z,11.20
2023-04-08T12:51:45.785Z,10.80
2023-04-08T12:54:13.146Z,10.27
2023-04-08T12:56:40.041Z,9.70
2023-04-08T12:59:06.929Z,9.70
2023-04-08T13:01:33.854Z,9.73
2023-04-08T13:04:00.949Z,9.67
2023-04-08T13:06:28.209Z,9.50
2023-04-08T13:08:55.480Z,9.23
2023-04-08T13:11:22.397Z,9.30
2023-04-08T13:13:49.486Z,9.57
2023-04-08T13:16:16.823Z,8.90
2023-04-08T13:18:43.783Z,8.97
2023-04-08T13:21:10.733Z,8.80
2023-04-08T13:23:37.858Z,8.80
2023-04-08T13:26:04.814Z,8.50
2023-04-08T13:28:31.737Z,8.90
2023-04-08T13:30:58.686Z,8.27
2023-04-08T13:33:25.751Z,8.70
2023-04-08T13:35:52.759Z,8.77
2023-04-08T13:38:19.705Z,9.17
2023-04-08T13:40:48.149Z,8.73
2023-04-08T13:43:16.425Z,8.80
2023-04-08T13:45:43.639Z,8.63
2023-04-08T13:48:10.669Z,8.50
2023-04-08T13:50:38.876Z,8.70
2023-04-08T13:53:05.795Z,9.03
2023-04-08T13:55:32.778Z,8.73
2023-04-08T13:57:59.668Z,8.40
2023-04-08T14:00:27.128Z,8.33
2023-04-08T14:02:54.201Z,9.30
2023-04-08T14:05:21.215Z,10.20
2023-04-08T14:07:48.118Z,9.90
2023-04-08T14:10:16.036Z,9.93
2023-04-08T14:12:42.869Z,10.13
2023-04-08T14:15:10.294Z,10.23
2023-04-08T14:17:37.266Z,10.23
2023-04-08T14:20:06.559Z,9.70
2023-04-08T14:22:33.599Z,9.90
2023-04-08T14:25:00.557Z,10.20
2023-04-08T14:27:28.045Z,10.07
2023-04-08T14:29:54.956Z,10.83
2023-04-08T14:32:21.882Z,10.20
2023-04-08T14:34:49.063Z,10.10
2023-04-08T14:37:17.884Z,9.67
2023-04-08T14:39:45.064Z,9.00
2023-04-08T14:42:12.109Z,9.03
2023-04-08T14:44:39.070Z,9.23
2023-04-08T14:47:06.031Z,8.80
2023-04-08T14:49:32.911Z,8.20
2023-04-08T14:52:00.008Z,9.40
2023-04-08T14:54:26.960Z,9.33
2023-04-08T14:56:54.153Z,8.77
2023-04-08T14:59:21.054Z,9.03
2023-04-08T15:01:48.099Z,8.20
2023-04-08T15:04:15.055Z,8.67
2023-04-08T15:06:42.382Z,9.13
2023-04-08T15:09:09.410Z,8.00
2023-04-08T15:11:36.327Z,8.63
2023-04-08T15:14:03.207Z,8.33
2023-04-08T15:16:30.120Z,7.63
2023-04-08T15:18:59.904Z,8.33
2023-04-08T15:21:27.400Z,8.27
2023-04-08T15:23:54.411Z,8.77
2023-04-08T15:26:21.732Z,8.40
2023-04-08T15:28:48.833Z,7.90
2023-04-08T15:31:16.713Z,8.17
2023-04-08T15:33:47.030Z,8.23
2023-04-08T15:36:19.612Z,8.20
2023-04-08T15:38:47.774Z,8.50
2023-04-08T15:41:19.016Z,8.30
2023-04-08T15:43:46.978Z,7.93
2023-04-08T15:46:21.424Z,8.27
2023-04-08T15:48:49.251Z,8.10
2023-04-08T15:51:16.966Z,8.00
2023-04-08T15:53:44.200Z,8.50
2023-04-08T15:56:16.215Z,9.00
2023-04-08T15:58:44.203Z,8.70
2023-04-08T16:01:11.247Z,9.00
2023-04-08T16:03:38.879Z,9.30
2023-04-08T16:06:06.285Z,8.93
2023-04-08T16:08:34.880Z,8.87
2023-04-08T16:11:03.936Z,8.83
2023-04-08T16:13:31.279Z,9.40
2023-04-08T16:16:04.575Z,8.20
2023-04-08T16:18:31.532Z,9.20
2023-04-08T16:20:58.509Z,8.40
2023-04-08T16:23:25.588Z,9.50
2023-04-08T16:25:52.530Z,9.13
2023-04-08T16:28:19.646Z,8.83
2023-04-08T16:30:47.945Z,9.83
2023-04-08T16:33:14.988Z,10.63
2023-04-08T16:35:41.960Z,12.40
2023-04-08T16:38:08.905Z,11.87
2023-04-08T16:40:35.918Z,9.50
2023-04-08T16:43:04.881Z,9.70
2023-04-08T16:45:35.079Z,10.97
2023-04-08T16:48:02.093Z,10.33
2023-04-08T16:50:29.020Z,10.03
2023-04-08T16:52:55.899Z,10.13
2023-04-08T16:55:22.935Z,9.00
2023-04-08T16:57:49.946Z,8.90
2023-04-08T17:00:18.703Z,8.63
2023-04-08T17:02:47.672Z,10.10
2023-04-08T17:05:14.819Z,9.23
2023-04-08T17:07:41.828Z,11.17
2023-04-08T17:10:09.350Z,9.17
2023-04-08T17:12:36.452Z,9.23
2023-04-08T17:15:04.116Z,9.63
2023-04-08T17:17:31.367Z,8.63
2023-04-08T17:19:58.428Z,8.80
2023-04-08T17:22:26.138Z,8.67
2023-04-08T17:24:53.197Z,8.67
2023-04-08T17:27:20.155Z,16.80
2023-04-08T17:29:47.043Z,10.40
2023-04-08T17:32:13.949Z,12.97
2023-04-08T17:34:41.308Z,10.63
2023-04-08T17:37:10.231Z,10.17
2023-04-08T17:39:40.805Z,9.77
2023-04-08T17:42:08.446Z,8.83
2023-04-08T17:44:36.338Z,8.63
2023-04-08T17:47:04.130Z,9.70
2023-04-08T17:49:31.001Z,8.43
2023-04-08T17:51:57.943Z,8.63
2023-04-08T17:54:25.062Z,8.77
2023-04-08T17:56:51.989Z,8.40
2023-04-08T17:59:18.861Z,9.07
2023-04-08T18:01:45.926Z,9.27
2023-04-08T18:04:13.866Z,8.37
2023-04-08T18:06:40.889Z,9.20
2023-04-08T18:09:07.891Z,8.77
2023-04-08T18:11:34.769Z,8.57
2023-04-08T18:14:01.727Z,9.17
2023-04-08T18:16:28.871Z,9.00
2023-04-08T18:18:55.847Z,8.53
2023-04-08T18:21:22.844Z,9.43
2023-04-08T18:23:50.426Z,14.83
2023-04-08T18:26:17.750Z,13.07
2023-04-08T18:28:44.854Z,10.37
2023-04-08T18:31:11.949Z,10.20
2023-04-08T18:33:39.139Z,9.90
2023-04-08T18:36:12.185Z,9.67
2023-04-08T18:38:40.960Z,9.10
2023-04-08T18:41:08.454Z,8.80
2023-04-08T18:43:35.661Z,8.27
2023-04-08T18:46:02.724Z,9.03
2023-04-08T18:48:29.797Z,8.40
2023-04-08T18:50:56.758Z,8.40
2023-04-08T18:53:23.714Z,8.30
2023-04-08T18:55:51.331Z,8.40
2023-04-08T18:58:18.319Z,9.83
2023-04-08T19:00:45.510Z,10.00
2023-04-08T19:03:12.506Z,11.30
2023-04-08T19:05:39.453Z,11.17
2023-04-08T19:08:06.562Z,10.30
2023-04-08T19:10:34.761Z,8.90
2023-04-08T19:13:02.049Z,10.80
2023-04-08T19:15:29.313Z,10.47
2023-04-08T19:17:56.628Z,10.50
2023-04-08T19:20:23.647Z,10.40
2023-04-08T19:22:51.140Z,10.00
2023-04-08T19:25:18.109Z,9.90
2023-04-08T19:27:46.025Z,9.73
2023-04-08T19:30:13.559Z,9.30
2023-04-08T19:32:40.720Z,9.77
2023-04-08T19:35:11.286Z,10.27
2023-04-08T19:37:38.180Z,10.70
2023-04-08T19:40:06.876Z,9.73
2023-04-08T19:42:34.095Z,9.73
2023-04-08T19:45:05.254Z,9.60
2023-04-08T19:47:32.204Z,10.17
2023-04-08T19:49:59.892Z,10.33
2023-04-08T19:52:26.899Z,10.20
2023-04-08T19:54:54.045Z,10.50
2023-04-08T19:57:21.144Z,9.57
2023-04-08T19:59:48.825Z,10.27
2023-04-08T20:02:15.963Z,9.97
2023-04-08T20:04:44.463Z,9.60
2023-04-08T20:07:11.884Z,9.87
2023-04-08T20:09:38.790Z,9.63
2023-04-08T20:12:06.512Z,9.70
2023-04-08T20:14:35.783Z,9.20
2023-04-08T20:17:03.223Z,9.67
2023-04-08T20:19:30.724Z,9.57
2023-04-08T20:21:57.835Z,9.90
2023-04-08T20:24:24.835Z,8.60
2023-04-08T20:26:52.526Z,9.67
2023-04-08T20:29:19.599Z,9.43
2023-04-08T20:31:47.121Z,9.03
2023-04-08T20:34:14.103Z,9.33
2023-04-08T20:36:41.212Z,9.17
2023-04-08T20:39:11.824Z,8.80
2023-04-08T20:41:38.886Z,8.63
2023-04-08T20:44:07.011Z,8.30
2023-04-08T20:46:35.289Z,7.73
2023-04-08T20:49:03.804Z,7.30
2023-04-08T20:51:33.760Z,7.17
2023-04-08T20:54:00.862Z,7.27
2023-04-08T20:56:28.156Z,7.10
2023-04-08T20:58:56.366Z,7.13
2023-04-08T21:01:24.463Z,7.30
2023-04-08T21:03:51.700Z,8.00
2023-04-08T21:06:19.816Z,8.10
2023-04-08T21:08:47.005Z,8.27
2023-04-08T21:11:14.744Z,9.37
2023-04-08T21:13:41.894Z,9.37
2023-04-08T21:16:09.131Z,8.57
2023-04-08T21:18:38.630Z,7.53
2023-04-08T21:21:06.062Z,6.87
2023-04-08T21:23:33.003Z,7.30
2023-04-08T21:26:01.934Z,6.83
2023-04-08T21:28:30.064Z,7.90
2023-04-08T21:30:57.322Z,8.60
2023-04-08T21:33:24.164Z,10.80
2023-04-08T21:35:51.615Z,10.13
2023-04-08T21:38:18.499Z,9.10
2023-04-08T21:40:45.344Z,8.90
2023-04-08T21:43:12.237Z,8.87
2023-04-08T21:45:39.178Z,7.93
2023-04-08T21:48:07.068Z,10.77
2023-04-08T21:50:33.940Z,10.47
2023-04-08T21:53:00.955Z,11.50
2023-04-08T21:55:29.385Z,10.83
2023-04-08T21:57:56.744Z,10.60
2023-04-08T22:00:24.594Z,11.20
2023-04-08T22:02:52.596Z,11.20
2023-04-08T22:05:19.709Z,12.40
2023-04-08T22:07:46.554Z,11.77
2023-04-08T22:10:13.597Z,11.93
2023-04-08T22:12:40.618Z,15.67
2023-04-08T22:15:08.396Z,13.03
2023-04-08T22:17:35.362Z,12.17
2023-04-08T22:20:02.336Z,11.70
2023-04-08T22:22:29.204Z,11.40
2023-04-08T22:24:56.094Z,11.30
2023-04-08T22:27:22.973Z,11.53
2023-04-08T22:29:49.907Z,11.93
2023-04-08T22:32:18.284Z,11.70
2023-04-08T22:34:45.311Z,12.33
2023-04-08T22:37:12.323Z,11.70
2023-04-08T22:39:39.214Z,11.20
2023-04-08T22:42:06.082Z,11.80
2023-04-08T22:44:32.988Z,11.53
2023-04-08T22:46:59.853Z,11.70
2023-04-08T22:49:27.085Z,11.77
2023-04-08T22:51:53.928Z,11.07
2023-04-08T22:54:20.915Z,11.90
2023-04-08T22:56:47.882Z,10.80
2023-04-08T22:59:14.764Z,10.17
2023-04-08T23:01:41.867Z,10.00
2023-04-08T23:04:08.911Z,9.83
2023-04-08T23:06:36.005Z,8.57
2023-04-08T23:09:03.009Z,9.63
2023-04-08T23:11:29.902Z,9.33
2023-04-08T23:13:56.824Z,9.20
2023-04-08T23:16:23.889Z,10.03
2023-04-08T23:18:51.401Z,9.47
2023-04-08T23:21:18.377Z,10.33
2023-04-08T23:23:45.350Z,9.47
2023-04-08T23:26:19.232Z,9.73
2023-04-08T23:28:46.397Z,9.57
2023-04-08T23:31:13.465Z,9.93
2023-04-08T23:33:40.616Z,9.40
2023-04-08T23:36:08.490Z,9.30
2023-04-08T23:38:37.108Z,9.60
2023-04-08T23:41:07.811Z,9.30
2023-04-08T23:43:34.991Z,8.80
2023-04-08T23:46:01.939Z,8.20
2023-04-08T23:48:28.812Z,7.87
2023-04-08T23:50:56.101Z,8.27
2023-04-08T23:53:23.375Z,8.40
2023-04-08T23:55:50.336Z,8.43
2023-04-08T23:58:17.172Z,8.70
